Latest Flight | Flight Log | Data Trends | Login | Join FlightData.com!
Date Range From To
Export:
Flight Log - N811ET - Click on row to view flight. Click on header to sort.
Date Origin Dest Depart Arrive Hobbs Flight Time Flight Distance Fuel Fuel/hr Fuel/nm Altitude Gnd Speed
Sun, Jun 9, 2013 KJYO KLEX 07:52 10:58 3.04 hrs 2.73 hrs 348.80 nm 27.82 gal 9.15 gal/hr 0.08 gal/nm 8038 msl 126 kts
Sat, Jun 8, 2013 W66 KJYO 16:41 17:14 0.54 hrs 0.35 hrs 43.49 nm 3.80 gal 7.10 gal/hr 0.09 gal/nm 2566 msl 120 kts
Sat, Jun 8, 2013 KJYO W66 14:32 15:04 0.51 hrs 0.34 hrs 43.86 nm 4.27 gal 8.31 gal/hr 0.10 gal/nm 3176 msl 125 kts
Mon, Jun 3, 2013 KJYO KJYO 09:57 11:29 1.48 hrs 1.08 hrs 122.28 nm 11.20 gal 7.57 gal/hr 0.09 gal/nm 2519 msl 108 kts
Sun, May 26, 2013 KJGG KJYO 14:43 16:06 1.34 hrs 1.20 hrs 145.38 nm 11.99 gal 8.93 gal/hr 0.08 gal/nm 6514 msl 117 kts
Sun, May 26, 2013 KJYO KJGG 12:17 13:35 1.26 hrs 1.04 hrs 145.98 nm 10.64 gal 8.47 gal/hr 0.07 gal/nm 7532 msl 137 kts
Tue, May 21, 2013 KJYO KJYO 17:45 18:47 1.01 hrs 0.65 hrs 74.38 nm 7.47 gal 7.39 gal/hr 0.10 gal/nm 6526 msl 113 kts
Fri, Apr 26, 2013 KOKV KJYO 17:38 18:02 0.39 hrs 0.30 hrs 34.88 nm 3.03 gal 7.83 gal/hr 0.09 gal/nm 3562 msl 112 kts
Fri, Apr 26, 2013 KJYO KOKV 14:45 17:18 1.46 hrs 1.24 hrs 127.42 nm 12.29 gal 8.41 gal/hr 0.10 gal/nm 3786 msl 97 kts
Wed, Apr 24, 2013 KOKV KJYO 08:42 09:29 0.78 hrs 0.60 hrs 65.70 nm 6.31 gal 8.09 gal/hr 0.10 gal/nm 3072 msl 107 kts
Sun, Apr 21, 2013 KBKT KJYO 16:03 17:17 1.2 hrs 1.03 hrs 132.30 nm 10.25 gal 8.58 gal/hr 0.08 gal/nm 7572 msl 125 kts
Sun, Apr 21, 2013 KCXE KBKT 15:26 15:57 0.5 hrs 0.34 hrs 36.18 nm 3.24 gal 6.48 gal/hr 0.09 gal/nm 3630 msl 104 kts
Sun, Apr 21, 2013 KDAN KCXE 14:47 15:21 0.55 hrs 0.43 hrs 46.26 nm 4.01 gal 7.34 gal/hr 0.09 gal/nm 3604 msl 105 kts
Sun, Apr 21, 2013 KMTV KDAN 14:08 14:37 0.47 hrs 0.33 hrs 35.76 nm 3.16 gal 6.75 gal/hr 0.09 gal/nm 3701 msl 106 kts
Sun, Apr 21, 2013 W90 KMTV 12:37 13:10 0.54 hrs 0.45 hrs 54.99 nm 4.29 gal 7.97 gal/hr 0.08 gal/nm 4605 msl 123 kts
Sun, Apr 21, 2013 KLYH W90 12:06 12:23 0.26 hrs 0.13 hrs 14.71 nm 1.65 gal 6.43 gal/hr 0.11 gal/nm 3406 msl 104 kts
Sun, Apr 21, 2013 W24 KLYH 11:30 11:47 0.25 hrs 0.13 hrs 15.78 nm 2.02 gal 8.01 gal/hr 0.13 gal/nm 3884 msl 107 kts
Sun, Apr 21, 2013 0V4 W24 11:06 11:20 0.23 hrs 0.16 hrs 17.78 nm 1.71 gal 7.45 gal/hr 0.10 gal/nm 2993 msl 110 kts
Sun, Apr 21, 2013 KFVX 0V4 10:35 11:00 0.42 hrs 0.28 hrs 34.79 nm 2.82 gal 6.78 gal/hr 0.08 gal/nm 3692 msl 123 kts
Sun, Apr 21, 2013 KJYO KFVX 09:08 10:15 1.07 hrs 0.86 hrs 120.78 nm 9.30 gal 8.72 gal/hr 0.08 gal/nm 6515 msl 135 kts
Sun, Apr 14, 2013 KOFP KJYO 15:23 16:17 0.89 hrs 0.78 hrs 97.81 nm 7.41 gal 8.30 gal/hr 0.08 gal/nm 6515 msl 124 kts
Sun, Apr 14, 2013 KFCI KOFP 14:53 15:15 0.37 hrs 0.25 hrs 26.87 nm 2.51 gal 6.88 gal/hr 0.09 gal/nm 3272 msl 106 kts
Sun, Apr 14, 2013 KPTB KFCI 14:25 14:45 0.32 hrs 0.20 hrs 21.73 nm 2.16 gal 6.77 gal/hr 0.10 gal/nm 2183 msl 105 kts
Sun, Apr 14, 2013 W96 KPTB 13:42 14:05 0.38 hrs 0.27 hrs 32.09 nm 3.02 gal 7.99 gal/hr 0.09 gal/nm 3100 msl 117 kts
Sun, Apr 14, 2013 W97 W96 13:00 13:20 0.32 hrs 0.21 hrs 22.73 nm 2.21 gal 6.86 gal/hr 0.10 gal/nm 3145 msl 104 kts
Sun, Apr 14, 2013 KMFV W97 12:14 12:52 0.62 hrs 0.53 hrs 60.70 nm 5.32 gal 8.58 gal/hr 0.09 gal/nm 6519 msl 112 kts
Sun, Apr 14, 2013 KTGI KMFV 11:45 12:02 0.28 hrs 0.18 hrs 20.26 nm 1.98 gal 7.11 gal/hr 0.10 gal/nm 3547 msl 113 kts
Sun, Apr 14, 2013 W75 KTGI 10:19 10:43 0.4 hrs 0.33 hrs 40.76 nm 3.34 gal 8.27 gal/hr 0.08 gal/nm 5558 msl 121 kts
Sun, Apr 14, 2013 W79 W75 09:43 10:05 0.36 hrs 0.24 hrs 30.23 nm 2.48 gal 6.99 gal/hr 0.08 gal/nm 3561 msl 124 kts
Sun, Apr 14, 2013 KJYO W79 08:45 09:38 0.85 hrs 0.70 hrs 100.93 nm 7.36 gal 8.64 gal/hr 0.07 gal/nm 5517 msl 139 kts
Sat, Apr 13, 2013 W81 KJYO 16:14 17:22 1.11 hrs 0.98 hrs 128.87 nm 9.46 gal 8.55 gal/hr 0.07 gal/nm 7531 msl 127 kts
Sat, Apr 13, 2013 W31 W81 15:50 16:06 0.27 hrs 0.18 hrs 20.25 nm 1.91 gal 7.11 gal/hr 0.09 gal/nm 2191 msl 113 kts
Sat, Apr 13, 2013 KAVC W31 15:16 15:34 0.29 hrs 0.20 hrs 22.54 nm 2.04 gal 6.99 gal/hr 0.09 gal/nm 2880 msl 110 kts
Sat, Apr 13, 2013 KLVL KAVC 14:51 15:08 0.28 hrs 0.17 hrs 17.52 nm 1.95 gal 7.06 gal/hr 0.11 gal/nm 3087 msl 97 kts
Sat, Apr 13, 2013 KEMV KLVL 14:17 14:37 0.31 hrs 0.18 hrs 19.61 nm 2.16 gal 6.90 gal/hr 0.11 gal/nm 3870 msl 101 kts
Sat, Apr 13, 2013 KAKQ KEMV 13:41 14:04 0.38 hrs 0.28 hrs 32.43 nm 3.12 gal 8.17 gal/hr 0.10 gal/nm 3957 msl 112 kts
Sat, Apr 13, 2013 KFKN KAKQ 13:11 13:29 0.29 hrs 0.19 hrs 21.56 nm 1.91 gal 6.67 gal/hr 0.09 gal/nm 3120 msl 107 kts
Sat, Apr 13, 2013 KCPK KFKN 12:37 13:03 0.42 hrs 0.26 hrs 30.19 nm 2.69 gal 6.37 gal/hr 0.09 gal/nm 3753 msl 114 kts
Sat, Apr 13, 2013 KORF KCPK 11:39 12:29 0.82 hrs 0.20 hrs 22.12 nm 3.12 gal 3.80 gal/hr 0.14 gal/nm 3530 msl 101 kts
Sat, Apr 13, 2013 KPVG KORF 11:08 11:31 0.37 hrs 0.23 hrs 25.32 nm 2.51 gal 6.73 gal/hr 0.10 gal/nm 3281 msl 103 kts
Sat, Apr 13, 2013 KPHF KPVG 10:27 10:55 0.47 hrs 0.25 hrs 28.15 nm 2.71 gal 5.79 gal/hr 0.10 gal/nm 3542 msl 113 kts
Sat, Apr 13, 2013 KJYO KPHF 08:59 10:18 1.27 hrs 1.03 hrs 149.24 nm 10.66 gal 8.40 gal/hr 0.07 gal/nm 7524 msl 138 kts
Mon, Apr 8, 2013 KOKV KJYO 17:20 18:35 1.22 hrs 1.03 hrs 111.14 nm 10.23 gal 8.40 gal/hr 0.09 gal/nm 4129 msl 104 kts
Mon, Apr 8, 2013 KJYO KOKV 16:00 17:06 1.1 hrs 0.74 hrs 80.76 nm 7.87 gal 7.13 gal/hr 0.10 gal/nm 3736 msl 108 kts
Sat, Apr 6, 2013 KHLX KJYO 16:25 18:07 1.66 hrs 1.51 hrs 213.68 nm 14.56 gal 8.79 gal/hr 0.07 gal/nm 7536 msl 137 kts
Sat, Apr 6, 2013 KMKJ KHLX 15:49 16:14 0.4 hrs 0.26 hrs 30.12 nm 2.91 gal 7.29 gal/hr 0.10 gal/nm 5536 msl 110 kts
Sat, Apr 6, 2013 KVJI KMKJ 15:02 15:27 0.41 hrs 0.30 hrs 36.87 nm 2.99 gal 7.33 gal/hr 0.08 gal/nm 5547 msl 122 kts
Sat, Apr 6, 2013 TN11 KVJI 14:20 14:55 0.57 hrs 0.50 hrs 62.62 nm 4.72 gal 8.24 gal/hr 0.08 gal/nm 7518 msl 122 kts
Sat, Apr 6, 2013 KLNP TN11 13:45 14:12 0.45 hrs 0.33 hrs 38.82 nm 3.20 gal 7.16 gal/hr 0.08 gal/nm 5023 msl 117 kts
Sat, Apr 6, 2013 KGDY KLNP 13:00 13:24 0.39 hrs 0.25 hrs 28.91 nm 2.75 gal 7.04 gal/hr 0.09 gal/nm 5098 msl 110 kts
Sat, Apr 6, 2013 6V3 KGDY 12:31 12:51 0.32 hrs 0.19 hrs 24.02 nm 2.29 gal 7.11 gal/hr 0.10 gal/nm 5327 msl 116 kts
Sat, Apr 6, 2013 KPSK 6V3 11:31 12:06 0.58 hrs 0.49 hrs 60.41 nm 4.93 gal 8.48 gal/hr 0.08 gal/nm 6525 msl 121 kts
Sat, Apr 6, 2013 KBCB KPSK 11:06 11:22 0.27 hrs 0.16 hrs 19.04 nm 1.93 gal 7.28 gal/hr 0.10 gal/nm 4064 msl 110 kts
Sat, Apr 6, 2013 KJYO KBCB 09:21 10:48 1.42 hrs 1.32 hrs 179.52 nm 12.53 gal 8.86 gal/hr 0.07 gal/nm 8518 msl 133 kts
Sat, Apr 6, 2013 KJYO KJYO 09:10 09:20 0.18 hrs 0.00 hrs 0.00 nm 0.58 gal 3.24 gal/hr 0.00 gal/nm 0 msl 0 kts
Sat, Mar 30, 2013 W90 KJYO 16:39 17:51 1.15 hrs 1.04 hrs 145.60 nm 9.79 gal 8.55 gal/hr 0.07 gal/nm 7543 msl 134 kts
Sat, Mar 30, 2013 W91 W90 16:08 16:29 0.33 hrs 0.23 hrs 25.22 nm 2.47 gal 7.48 gal/hr 0.10 gal/nm 3091 msl 108 kts
Sat, Mar 30, 2013 KROA W91 15:31 16:00 0.47 hrs 0.24 hrs 26.91 nm 2.70 gal 5.81 gal/hr 0.10 gal/nm 4576 msl 110 kts
Sat, Mar 30, 2013 KHSP KROA 14:51 15:22 0.51 hrs 0.35 hrs 39.62 nm 3.55 gal 7.01 gal/hr 0.09 gal/nm 6547 msl 113 kts
Sat, Mar 30, 2013 W13 KHSP 14:09 14:40 0.52 hrs 0.44 hrs 49.02 nm 4.28 gal 8.23 gal/hr 0.09 gal/nm 6099 msl 111 kts
Sat, Mar 30, 2013 KSHD W13 13:17 13:42 0.4 hrs 0.26 hrs 26.79 nm 2.59 gal 6.43 gal/hr 0.10 gal/nm 3109 msl 103 kts
Sat, Mar 30, 2013 KVBW KSHD 12:39 12:53 0.22 hrs 0.10 hrs 10.76 nm 1.38 gal 6.38 gal/hr 0.13 gal/nm 2813 msl 99 kts
Sat, Mar 30, 2013 8W2 KVBW 11:49 12:12 0.37 hrs 0.25 hrs 28.16 nm 2.61 gal 7.09 gal/hr 0.09 gal/nm 3131 msl 109 kts
Sat, Mar 30, 2013 W45 8W2 11:20 11:39 0.29 hrs 0.19 hrs 20.05 nm 2.09 gal 7.19 gal/hr 0.10 gal/nm 3637 msl 99 kts
Sat, Mar 30, 2013 KFRR W45 10:50 11:12 0.36 hrs 0.24 hrs 26.06 nm 2.48 gal 6.97 gal/hr 0.10 gal/nm 3105 msl 107 kts
Sat, Mar 30, 2013 KOKV KFRR 10:15 10:39 0.37 hrs 0.21 hrs 21.41 nm 2.24 gal 5.99 gal/hr 0.10 gal/nm 3267 msl 99 kts
Sat, Mar 30, 2013 KJYO KOKV 09:31 10:04 0.53 hrs 0.29 hrs 32.83 nm 3.66 gal 6.86 gal/hr 0.11 gal/nm 3750 msl 106 kts
Sat, Mar 16, 2013 KJYO KJYO 12:42 14:10 1.47 hrs 1.15 hrs 130.70 nm 10.96 gal 7.47 gal/hr 0.08 gal/nm 3305 msl 113 kts
Sun, Mar 10, 2013 KJYO KJYO 12:53 14:22 1.48 hrs 1.15 hrs 131.62 nm 12.19 gal 8.26 gal/hr 0.09 gal/nm 3853 msl 114 kts
Sat, Mar 9, 2013 KCHO KJYO 17:25 18:14 0.74 hrs 0.56 hrs 76.94 nm 6.55 gal 8.81 gal/hr 0.09 gal/nm 5702 msl 127 kts
Sat, Mar 9, 2013 KLKU KCHO 16:58 17:19 0.33 hrs 0.22 hrs 28.02 nm 2.58 gal 7.82 gal/hr 0.09 gal/nm 3058 msl 113 kts
Sat, Mar 9, 2013 7W4 KLKU 16:35 16:50 0.23 hrs 0.14 hrs 16.69 nm 1.76 gal 7.78 gal/hr 0.11 gal/nm 2347 msl 108 kts
Sat, Mar 9, 2013 KEZF 7W4 16:08 16:30 0.33 hrs 0.23 hrs 28.53 nm 2.79 gal 8.45 gal/hr 0.10 gal/nm 3156 msl 113 kts
Sat, Mar 9, 2013 W66 KEZF 15:34 15:58 0.4 hrs 0.27 hrs 30.07 nm 2.84 gal 7.18 gal/hr 0.09 gal/nm 3146 msl 111 kts
Sat, Mar 9, 2013 KJYO W66 14:34 15:09 0.55 hrs 0.37 hrs 46.47 nm 4.26 gal 7.80 gal/hr 0.09 gal/nm 3620 msl 116 kts
Sat, Mar 9, 2013 KFDK KJYO 12:21 12:58 0.59 hrs 0.28 hrs 31.63 nm 3.77 gal 6.36 gal/hr 0.12 gal/nm 3145 msl 108 kts
Sat, Mar 9, 2013 KJYO KFDK 08:46 09:19 0.52 hrs 0.25 hrs 27.15 nm 3.29 gal 6.32 gal/hr 0.12 gal/nm 2989 msl 100 kts
Sat, Mar 2, 2013 KJYO KJYO 13:36 14:50 1.18 hrs 0.94 hrs 108.12 nm 9.52 gal 8.07 gal/hr 0.09 gal/nm 3416 msl 109 kts
Sun, Feb 24, 2013 KJYO KJYO 09:43 11:01 1.21 hrs 0.80 hrs 84.21 nm 8.11 gal 6.70 gal/hr 0.10 gal/nm 3391 msl 99 kts
Mon, Feb 18, 2013 KJYO KJYO 18:11 19:05 0.87 hrs 0.53 hrs 61.78 nm 6.34 gal 7.28 gal/hr 0.10 gal/nm 3651 msl 114 kts
Sun, Feb 10, 2013 KJYO KJYO 14:18 15:44 1.38 hrs 0.90 hrs 102.66 nm 9.75 gal 7.07 gal/hr 0.09 gal/nm 3581 msl 109 kts
Sun, Feb 10, 2013 KGVE KJYO 11:13 11:52 0.64 hrs 0.53 hrs 73.34 nm 5.53 gal 8.62 gal/hr 0.08 gal/nm 5626 msl 135 kts
Sun, Feb 10, 2013 W93 KGVE 10:37 10:57 0.32 hrs 0.14 hrs 13.74 nm 1.70 gal 5.28 gal/hr 0.12 gal/nm 2327 msl 98 kts
Sun, Feb 10, 2013 KJYO W93 09:32 10:25 0.84 hrs 0.57 hrs 67.65 nm 6.39 gal 7.59 gal/hr 0.09 gal/nm 4585 msl 111 kts
Sat, Feb 2, 2013 KJYO KJYO 14:13 15:33 1.32 hrs 0.97 hrs 110.52 nm 9.32 gal 7.05 gal/hr 0.08 gal/nm 3048 msl 112 kts
Sun, Jan 27, 2013 KJYO KJYO 14:19 15:39 1.31 hrs 0.89 hrs 98.85 nm 9.74 gal 7.46 gal/hr 0.10 gal/nm 3923 msl 110 kts
Sun, Jan 27, 2013 KJYO KJYO 11:58 10:33 0.97 hrs 0.74 hrs 91.98 nm 8.40 gal 8.63 gal/hr 0.09 gal/nm 4186 msl 124 kts
Mon, Jan 7, 2013 KOKV KJYO 15:14 15:43 0.46 hrs 0.28 hrs 33.31 nm 3.15 gal 6.84 gal/hr 0.09 gal/nm 3613 msl 116 kts
Mon, Jan 7, 2013 KJYO KOKV 13:40 14:55 1.23 hrs 0.99 hrs 104.23 nm 9.42 gal 7.65 gal/hr 0.09 gal/nm 5609 msl 103 kts
Sat, Jan 5, 2013 W79 KJYO 13:46 14:53 1.07 hrs 0.87 hrs 109.03 nm 9.38 gal 8.75 gal/hr 0.09 gal/nm 6617 msl 120 kts
Sat, Jan 5, 2013 KJYO W79 10:45 11:53 1.1 hrs 0.81 hrs 109.94 nm 8.95 gal 8.15 gal/hr 0.08 gal/nm 6518 msl 132 kts
Fri, Dec 28, 2012 KOKV KJYO 14:34 15:00 0.43 hrs 0.29 hrs 32.25 nm 2.87 gal 6.68 gal/hr 0.09 gal/nm 3849 msl 111 kts
Fri, Dec 28, 2012 KFDK KOKV 13:11 14:23 1.17 hrs 0.72 hrs 78.82 nm 8.26 gal 7.07 gal/hr 0.10 gal/nm 3545 msl 106 kts
Fri, Dec 28, 2012 KJYO KFDK 11:20 12:16 0.91 hrs 0.58 hrs 67.50 nm 6.25 gal 6.85 gal/hr 0.09 gal/nm 3672 msl 114 kts
Sun, Dec 23, 2012 KOKV KJYO 12:20 13:54 1.55 hrs 1.07 hrs 116.93 nm 11.03 gal 7.10 gal/hr 0.09 gal/nm 4263 msl 109 kts
Sun, Dec 23, 2012 KJYO KOKV 11:22 12:08 0.73 hrs 0.48 hrs 51.97 nm 5.48 gal 7.48 gal/hr 0.11 gal/nm 3633 msl 104 kts
Wed, Dec 19, 2012 KJYO KJYO 11:06 17:24 1.53 hrs 0.94 hrs 99.79 nm -23.28 gal -15.18 gal/hr -0.23 gal/nm 3102 msl 104 kts
Thu, Nov 29, 2012 KROA KJYO 17:01 18:33 1.5 hrs 1.24 hrs 174.70 nm 13.31 gal 8.88 gal/hr 0.08 gal/nm 9017 msl 136 kts
Thu, Nov 29, 2012 KJYO KROA 14:29 17:10 1.66 hrs 1.35 hrs 168.67 nm 14.09 gal 8.47 gal/hr 0.08 gal/nm 8011 msl 123 kts
Fri, Nov 23, 2012 KFDK KJYO 13:21 13:52 0.51 hrs 0.30 hrs 28.01 nm 3.19 gal 6.31 gal/hr 0.11 gal/nm 3156 msl 93 kts
Fri, Nov 23, 2012 KOKV KFDK 12:09 12:42 0.54 hrs 0.36 hrs 43.90 nm 3.51 gal 6.55 gal/hr 0.08 gal/nm 3633 msl 121 kts
Fri, Nov 23, 2012 KJYO KOKV 11:28 12:00 0.5 hrs 0.29 hrs 31.95 nm 3.24 gal 6.43 gal/hr 0.10 gal/nm 3594 msl 105 kts
Sat, Nov 17, 2012 KLNS KJYO 14:31 15:29 0.93 hrs 0.68 hrs 97.61 nm 7.64 gal 8.23 gal/hr 0.08 gal/nm 4517 msl 135 kts
Sat, Nov 17, 2012 KJYO KLNS 07:52 09:00 1.1 hrs 0.86 hrs 96.96 nm 8.90 gal 8.10 gal/hr 0.09 gal/nm 5516 msl 109 kts
Sun, Nov 11, 2012 KOKV KJYO 16:51 17:16 0.41 hrs 0.30 hrs 32.51 nm 2.94 gal 7.21 gal/hr 0.09 gal/nm 3609 msl 106 kts
Sun, Nov 11, 2012 KJYO KOKV 15:34 16:41 1.08 hrs 0.85 hrs 95.99 nm 8.11 gal 7.51 gal/hr 0.08 gal/nm 5191 msl 109 kts
Sun, Nov 4, 2012 KTHV KJYO 13:18 14:02 0.69 hrs 0.52 hrs 69.26 nm 5.56 gal 8.05 gal/hr 0.08 gal/nm 3591 msl 122 kts
Sun, Nov 4, 2012 KJYO KTHV 11:34 12:34 0.94 hrs 0.57 hrs 67.98 nm 6.21 gal 6.60 gal/hr 0.09 gal/nm 3657 msl 114 kts
Sun, Nov 4, 2012 KOKV KJYO 11:17 11:44 0.44 hrs 0.27 hrs 31.44 nm 2.79 gal 6.36 gal/hr 0.09 gal/nm 3035 msl 116 kts
Sun, Nov 4, 2012 KJYO KOKV 10:17 11:07 0.82 hrs 0.62 hrs 59.03 nm 5.42 gal 6.60 gal/hr 0.09 gal/nm 6720 msl 95 kts
Wed, Oct 24, 2012 KJYO KJYO 12:55 14:18 1.35 hrs 1.05 hrs 113.03 nm 11.00 gal 8.13 gal/hr 0.10 gal/nm 3871 msl 104 kts
Sun, Oct 21, 2012 KOKV KJYO 11:16 12:19 1.02 hrs 0.84 hrs 90.72 nm 8.11 gal 7.95 gal/hr 0.09 gal/nm 3145 msl 106 kts
Sun, Oct 21, 2012 KJYO KOKV 10:10 10:56 0.76 hrs 0.52 hrs 53.05 nm 5.27 gal 6.98 gal/hr 0.10 gal/nm 3744 msl 100 kts
Sat, Oct 13, 2012 KJYO KJYO 16:43 18:31 1.78 hrs 1.28 hrs 136.15 nm 13.32 gal 7.50 gal/hr 0.10 gal/nm 3727 msl 105 kts
Mon, Oct 8, 2012 KOKV KJYO 17:25 18:00 0.57 hrs 0.41 hrs 43.97 nm 4.43 gal 7.83 gal/hr 0.10 gal/nm 4275 msl 106 kts
Mon, Oct 8, 2012 KJYO KOKV 15:36 17:05 1.46 hrs 1.15 hrs 125.16 nm 11.88 gal 8.16 gal/hr 0.09 gal/nm 4029 msl 107 kts
Fri, Oct 5, 2012 KOKV KJYO 15:15 16:29 1.18 hrs 0.95 hrs 104.75 nm 9.02 gal 7.65 gal/hr 0.09 gal/nm 4022 msl 106 kts
Fri, Oct 5, 2012 KJYO KOKV 14:21 14:55 0.57 hrs 0.33 hrs 33.08 nm 3.72 gal 6.54 gal/hr 0.11 gal/nm 3825 msl 100 kts
Sun, Sep 30, 2012 KJYO KJYO 12:22 14:12 1.81 hrs 0.98 hrs 103.01 nm 11.06 gal 6.11 gal/hr 0.11 gal/nm 4023 msl 104 kts
Tue, Sep 25, 2012 KOKV KJYO 15:31 16:57 1.42 hrs 1.18 hrs 128.32 nm 10.87 gal 7.68 gal/hr 0.08 gal/nm 3151 msl 107 kts
Mon, Sep 24, 2012 KTHV KJYO 14:20 15:07 0.76 hrs 0.60 hrs 70.10 nm 5.77 gal 7.59 gal/hr 0.08 gal/nm 4639 msl 113 kts
Mon, Sep 24, 2012 KJYO KTHV 13:26 14:13 0.75 hrs 0.57 hrs 68.74 nm 5.77 gal 7.70 gal/hr 0.08 gal/nm 5742 msl 117 kts
Fri, Sep 21, 2012 KOKV KJYO 17:58 19:00 1 hrs 0.77 hrs 84.97 nm 6.94 gal 6.96 gal/hr 0.08 gal/nm 3809 msl 104 kts
Fri, Sep 21, 2012 KJYO KOKV 17:12 17:43 0.51 hrs 0.29 hrs 33.90 nm 3.54 gal 6.96 gal/hr 0.10 gal/nm 3504 msl 114 kts
Fri, Sep 21, 2012 NC14 KJYO 10:34 12:19 1.72 hrs 1.51 hrs 206.99 nm 15.07 gal 8.76 gal/hr 0.07 gal/nm 9014 msl 135 kts
Sat, Sep 15, 2012 KJYO NC14 09:15 10:57 1.68 hrs 1.49 hrs 203.57 nm 14.67 gal 8.73 gal/hr 0.07 gal/nm 4535 msl 135 kts
Thu, Sep 13, 2012 KOKV KJYO 14:46 16:00 1.21 hrs 1.00 hrs 103.47 nm 8.86 gal 7.34 gal/hr 0.09 gal/nm 4083 msl 102 kts
Thu, Sep 13, 2012 KJYO KOKV 13:49 14:27 0.62 hrs 0.37 hrs 38.59 nm 4.56 gal 7.33 gal/hr 0.12 gal/nm 3806 msl 101 kts
Wed, Sep 12, 2012 KJYO KJYO 15:31 17:19 1.78 hrs 1.52 hrs 157.79 nm 13.62 gal 7.66 gal/hr 0.09 gal/nm 3810 msl 102 kts
Tue, Sep 11, 2012 KOKV KJYO 15:19 15:45 0.42 hrs 0.27 hrs 30.93 nm 2.97 gal 7.05 gal/hr 0.10 gal/nm 2807 msl 111 kts
Tue, Sep 11, 2012 KJYO KOKV 13:16 15:04 1.8 hrs 1.49 hrs 152.37 nm 14.14 gal 7.84 gal/hr 0.09 gal/nm 3737 msl 102 kts
Fri, Sep 7, 2012 KOKV KJYO 10:52 12:08 1.25 hrs 1.09 hrs 108.09 nm 10.71 gal 8.60 gal/hr 0.10 gal/nm 3772 msl 98 kts
Fri, Sep 7, 2012 KJYO KOKV 09:50 10:31 0.66 hrs 0.41 hrs 45.22 nm 4.73 gal 7.22 gal/hr 0.10 gal/nm 3571 msl 104 kts
Sat, Sep 1, 2012 KCBE KJYO 11:28 12:42 1.23 hrs 0.94 hrs 109.96 nm 9.54 gal 7.76 gal/hr 0.09 gal/nm 6017 msl 116 kts
Sat, Sep 1, 2012 KJYO KCBE 08:50 10:29 1.63 hrs 1.36 hrs 152.62 nm 14.70 gal 9.00 gal/hr 0.10 gal/nm 6067 msl 111 kts
Thu, Aug 30, 2012 KOKV KJYO 09:58 10:34 0.6 hrs 0.41 hrs 43.96 nm 4.18 gal 7.02 gal/hr 0.10 gal/nm 3079 msl 106 kts
Thu, Aug 30, 2012 KJYO KOKV 08:14 09:40 1.42 hrs 0.99 hrs 105.57 nm 10.41 gal 7.35 gal/hr 0.10 gal/nm 3759 msl 105 kts
Wed, Aug 29, 2012 KOKV KJYO 09:53 10:59 1.09 hrs 0.91 hrs 99.27 nm 8.52 gal 7.80 gal/hr 0.09 gal/nm 3804 msl 108 kts
Wed, Aug 29, 2012 KJYO KOKV 08:30 09:45 1.23 hrs 0.92 hrs 103.29 nm 9.70 gal 7.86 gal/hr 0.09 gal/nm 3729 msl 110 kts
Sat, Aug 18, 2012 KOKV KJYO 10:35 11:34 0.96 hrs 0.82 hrs 91.52 nm 8.67 gal 9.04 gal/hr 0.09 gal/nm 5067 msl 108 kts
Sat, Aug 18, 2012 KJYO KOKV 09:23 10:22 0.93 hrs 0.66 hrs 76.88 nm 7.34 gal 7.91 gal/hr 0.10 gal/nm 4844 msl 110 kts
Thu, Aug 16, 2012 KJYO KJYO 14:20 16:08 1.76 hrs 1.35 hrs 151.97 nm 14.40 gal 8.20 gal/hr 0.09 gal/nm 3839 msl 109 kts
Sun, Aug 12, 2012 40N KJYO 12:57 14:02 1.06 hrs 0.86 hrs 104.49 nm 8.68 gal 8.20 gal/hr 0.08 gal/nm 3640 msl 119 kts
Sun, Aug 12, 2012 KJYO 40N 10:55 11:55 0.99 hrs 0.75 hrs 104.43 nm 8.22 gal 8.34 gal/hr 0.08 gal/nm 5519 msl 137 kts
Thu, Aug 2, 2012 KMGY KJYO 12:16 14:57 2.65 hrs 2.41 hrs 320.06 nm 22.85 gal 8.61 gal/hr 0.07 gal/nm 9056 msl 131 kts
Thu, Aug 2, 2012 1H0 KMGY 09:03 11:48 2.71 hrs 2.43 hrs 330.40 nm 23.26 gal 8.58 gal/hr 0.07 gal/nm 9038 msl 134 kts
Sat, Jul 28, 2012 KMGY 1H0 13:11 15:48 2.58 hrs 2.27 hrs 309.79 nm 21.61 gal 8.38 gal/hr 0.07 gal/nm 8073 msl 135 kts
Sat, Jul 28, 2012 KJYO KMGY 09:28 12:30 2.99 hrs 2.73 hrs 333.36 nm 26.21 gal 8.78 gal/hr 0.08 gal/nm 10014 msl 121 kts
Thu, Jul 12, 2012 KJYO KJYO 09:13 11:09 1.91 hrs 1.52 hrs 160.22 nm 15.62 gal 8.19 gal/hr 0.10 gal/nm 4702 msl 104 kts
Sun, Jul 1, 2012 KJYO KJYO 08:45 10:51 2.08 hrs 1.52 hrs 155.00 nm 16.12 gal 7.76 gal/hr 0.10 gal/nm 3058 msl 101 kts
Thu, Jun 28, 2012 KCHO KJYO 10:34 11:40 1.08 hrs 0.79 hrs 92.86 nm 8.73 gal 8.07 gal/hr 0.09 gal/nm 4675 msl 116 kts
Thu, Jun 28, 2012 KJYO KCHO 08:52 09:55 1.03 hrs 0.62 hrs 74.16 nm 7.67 gal 7.45 gal/hr 0.10 gal/nm 4593 msl 117 kts
Tue, Jun 19, 2012 KJYO KJYO 16:27 17:41 1.22 hrs 0.47 hrs 41.67 nm 6.57 gal 5.37 gal/hr 0.16 gal/nm 1267 msl 89 kts
Sun, Jun 17, 2012 KJYO KJYO 10:20 12:07 1.77 hrs 1.11 hrs 107.92 nm 12.01 gal 6.80 gal/hr 0.11 gal/nm 4036 msl 96 kts
Sat, Jun 16, 2012 KIAD KJYO 15:55 16:57 1.03 hrs 0.16 hrs 17.38 nm 3.81 gal 3.71 gal/hr 0.22 gal/nm 2067 msl 105 kts
Sat, Jun 16, 2012 KJYO KIAD 07:29 08:08 0.66 hrs 0.25 hrs 27.34 nm 3.73 gal 5.67 gal/hr 0.14 gal/nm 3025 msl 107 kts
Fri, Jun 15, 2012 KJYO KJYO 09:55 11:23 1.46 hrs 0.61 hrs 52.61 nm 7.70 gal 5.27 gal/hr 0.15 gal/nm 1341 msl 87 kts
Thu, Jun 14, 2012 KJYO KJYO 14:08 15:45 1.62 hrs 0.97 hrs 96.85 nm 10.57 gal 6.54 gal/hr 0.11 gal/nm 3094 msl 100 kts
Thu, Jun 14, 2012 KJYO KJYO 09:55 11:21 1.44 hrs 0.70 hrs 58.95 nm 8.37 gal 5.81 gal/hr 0.14 gal/nm 1263 msl 85 kts
Sun, Jun 10, 2012 W95 KJYO 09:57 12:30 2.45 hrs 2.32 hrs 308.70 nm 22.99 gal 9.39 gal/hr 0.07 gal/nm 8009 msl 129 kts
Sat, Jun 9, 2012 W95 W95 10:13 11:03 0.79 hrs 0.58 hrs 63.03 nm 5.85 gal 7.45 gal/hr 0.09 gal/nm 1219 msl 102 kts
Fri, Jun 8, 2012 KMQI W95 11:52 12:41 0.79 hrs 0.65 hrs 81.38 nm 7.04 gal 8.94 gal/hr 0.09 gal/nm 3012 msl 120 kts
Fri, Jun 8, 2012 KJYO KMQI 09:26 11:20 1.85 hrs 1.59 hrs 234.04 nm 15.45 gal 8.37 gal/hr 0.07 gal/nm 9016 msl 143 kts
Thu, Jun 7, 2012 KJYO KJYO 09:22 10:46 1.4 hrs 0.63 hrs 53.58 nm 7.88 gal 5.63 gal/hr 0.15 gal/nm 1291 msl 85 kts
Tue, Jun 5, 2012 KJYO KJYO 14:38 15:53 1.26 hrs 0.64 hrs 54.81 nm 7.51 gal 5.98 gal/hr 0.14 gal/nm 1333 msl 86 kts
Sun, Jun 3, 2012 KJYO KJYO 10:34 12:17 1.7 hrs 1.38 hrs 143.24 nm 12.34 gal 7.25 gal/hr 0.09 gal/nm 4692 msl 103 kts
Mon, May 28, 2012 KSVH KJYO 12:09 14:28 2.26 hrs 2.00 hrs 271.76 nm 19.33 gal 8.54 gal/hr 0.07 gal/nm 9019 msl 133 kts
Sun, May 27, 2012 KJYO KSVH 12:09 14:35 2.39 hrs 2.10 hrs 286.58 nm 20.49 gal 8.59 gal/hr 0.07 gal/nm 8091 msl 134 kts
Sat, May 12, 2012 KLNS KJYO 14:06 15:07 0.98 hrs 0.78 hrs 92.74 nm 7.71 gal 7.84 gal/hr 0.08 gal/nm 6555 msl 115 kts
Sat, May 12, 2012 KJYO KLNS 10:50 12:57 1.06 hrs 0.74 hrs 97.72 nm 10.02 gal 9.42 gal/hr 0.10 gal/nm 5547 msl 124 kts
Sun, May 6, 2012 KSHD KJYO 15:02 16:12 1.14 hrs 0.87 hrs 104.33 nm 8.96 gal 7.88 gal/hr 0.09 gal/nm 7018 msl 117 kts
Sun, May 6, 2012 KJYO KSHD 11:44 14:22 1.61 hrs 1.35 hrs 169.07 nm 14.31 gal 8.88 gal/hr 0.08 gal/nm 6015 msl 123 kts
Sun, Apr 29, 2012 KJYO KJYO 11:56 13:47 1.78 hrs 1.60 hrs 172.09 nm 15.39 gal 8.64 gal/hr 0.09 gal/nm 3806 msl 103 kts
Thu, Apr 19, 2012 KFRR KJYO 17:44 18:13 0.49 hrs 0.38 hrs 42.22 nm 3.57 gal 7.33 gal/hr 0.08 gal/nm 2669 msl 112 kts
Thu, Apr 19, 2012 KJYO KFRR 16:56 17:39 0.72 hrs 0.55 hrs 68.78 nm 6.01 gal 8.38 gal/hr 0.09 gal/nm 5519 msl 124 kts
Tue, Apr 3, 2012 KOKV KJYO 15:21 15:44 0.38 hrs 0.27 hrs 31.15 nm 2.63 gal 6.86 gal/hr 0.08 gal/nm 3032 msl 114 kts
Tue, Apr 3, 2012 KJYO KOKV 13:39 15:10 1.49 hrs 1.26 hrs 134.84 nm 11.66 gal 7.83 gal/hr 0.09 gal/nm 3818 msl 105 kts
Tue, Mar 27, 2012 KHEF KJYO 14:45 15:17 0.54 hrs 0.26 hrs 27.57 nm 2.94 gal 5.45 gal/hr 0.11 gal/nm 1436 msl 105 kts
Tue, Mar 27, 2012 KJYO KHEF 09:27 10:01 0.56 hrs 0.25 hrs 28.84 nm 3.04 gal 5.47 gal/hr 0.11 gal/nm 1438 msl 116 kts
Sat, Mar 17, 2012 KAGC KJYO 18:24 19:52 1.44 hrs 1.14 hrs 142.11 nm 11.40 gal 7.90 gal/hr 0.08 gal/nm 7104 msl 123 kts
Sat, Mar 17, 2012 KJYO KAGC 16:16 17:38 1.35 hrs 1.05 hrs 140.62 nm 10.74 gal 7.94 gal/hr 0.08 gal/nm 8035 msl 132 kts
Sun, Mar 11, 2012 KJYO KJYO 15:37 18:20 1.68 hrs 1.41 hrs 157.32 nm 14.19 gal 8.43 gal/hr 0.09 gal/nm 3810 msl 109 kts
Sat, Mar 10, 2012 KLKU KJYO 17:01 17:59 0.92 hrs 0.71 hrs 90.35 nm 7.82 gal 8.48 gal/hr 0.09 gal/nm 6048 msl 121 kts
Sat, Mar 10, 2012 KJYO KLKU 11:34 12:30 0.9 hrs 0.65 hrs 85.44 nm 6.65 gal 7.36 gal/hr 0.08 gal/nm 4574 msl 125 kts
Wed, Mar 7, 2012 KJYO KJYO 14:37 15:50 1.18 hrs 0.94 hrs 101.74 nm 9.81 gal 8.31 gal/hr 0.10 gal/nm 3740 msl 105 kts
Tue, Mar 6, 2012 KJYO KJYO 13:11 15:32 2.31 hrs 1.98 hrs 227.83 nm 18.46 gal 7.99 gal/hr 0.08 gal/nm 5533 msl 113 kts
Tue, Feb 28, 2012 KJYO KJYO 15:16 16:52 1.57 hrs 1.32 hrs 151.21 nm 12.60 gal 8.02 gal/hr 0.08 gal/nm 5544 msl 113 kts
Sun, Feb 26, 2012 W29 KJYO 14:12 15:04 0.84 hrs 0.67 hrs 76.38 nm 6.28 gal 7.51 gal/hr 0.08 gal/nm 2326 msl 110 kts
Sun, Feb 26, 2012 KJYO W29 12:05 13:00 0.88 hrs 0.53 hrs 65.81 nm 5.47 gal 6.26 gal/hr 0.08 gal/nm 2073 msl 118 kts
Thu, Feb 23, 2012 KJYO KJYO 14:34 15:45 1.18 hrs 0.92 hrs 101.87 nm 9.46 gal 8.01 gal/hr 0.09 gal/nm 3794 msl 110 kts
Wed, Feb 22, 2012 KLNS KJYO 10:55 12:00 1.08 hrs 0.88 hrs 94.77 nm 8.63 gal 8.02 gal/hr 0.09 gal/nm 6516 msl 107 kts
Wed, Feb 22, 2012 KJYO KLNS 07:57 08:49 0.86 hrs 0.65 hrs 92.80 nm 6.82 gal 7.97 gal/hr 0.07 gal/nm 5518 msl 140 kts
Mon, Feb 20, 2012 KJYO KJYO 13:56 15:58 2 hrs 1.71 hrs 198.93 nm 16.62 gal 8.33 gal/hr 0.08 gal/nm 6561 msl 114 kts
Fri, Feb 17, 2012 KJYO KJYO 15:26 16:44 1.27 hrs 1.04 hrs 119.22 nm 9.81 gal 7.72 gal/hr 0.08 gal/nm 5532 msl 113 kts
Tue, Feb 7, 2012 KJYO KJYO 14:18 16:13 1.88 hrs 1.67 hrs 176.29 nm 15.94 gal 8.48 gal/hr 0.09 gal/nm 3783 msl 103 kts
Sat, Feb 4, 2012 KJYO KJYO 13:23 14:42 1.29 hrs 1.06 hrs 115.89 nm 9.89 gal 7.70 gal/hr 0.09 gal/nm 3888 msl 108 kts
Fri, Feb 3, 2012 KJYO KJYO 11:02 12:53 1.84 hrs 1.62 hrs 171.22 nm 14.61 gal 7.96 gal/hr 0.09 gal/nm 4563 msl 104 kts
Tue, Jan 31, 2012 KOKV KJYO 18:01 19:19 1.3 hrs 1.13 hrs 114.02 nm 9.55 gal 7.36 gal/hr 0.08 gal/nm 3158 msl 100 kts
Tue, Jan 31, 2012 KJYO KOKV 16:47 17:48 1 hrs 0.76 hrs 77.24 nm 8.18 gal 8.19 gal/hr 0.11 gal/nm 3819 msl 101 kts
Mon, Jan 30, 2012 KJYO KJYO 11:30 13:17 1.73 hrs 1.51 hrs 163.01 nm 14.61 gal 8.43 gal/hr 0.09 gal/nm 4526 msl 105 kts
Wed, Jan 25, 2012 KJYO KJYO 10:30 12:09 1.61 hrs 1.37 hrs 143.21 nm 12.66 gal 7.84 gal/hr 0.09 gal/nm 3797 msl 102 kts
Tue, Jan 24, 2012 KJYO KJYO 15:25 17:32 2.08 hrs 1.88 hrs 214.19 nm 18.26 gal 8.77 gal/hr 0.09 gal/nm 4643 msl 112 kts
Fri, Jan 20, 2012 KJYO KJYO 11:33 13:17 1.71 hrs 1.38 hrs 150.06 nm 13.55 gal 7.92 gal/hr 0.09 gal/nm 4854 msl 108 kts
Tue, Jan 10, 2012 KJYO KJYO 14:02 15:37 1.56 hrs 1.33 hrs 148.90 nm 12.94 gal 8.29 gal/hr 0.09 gal/nm 5676 msl 110 kts
Fri, Jan 6, 2012 KJYO KJYO 09:58 11:25 1.43 hrs 1.08 hrs 111.17 nm 10.03 gal 7.01 gal/hr 0.09 gal/nm 4675 msl 102 kts
Fri, Dec 30, 2011 KJYO KJYO 11:38 13:04 1.41 hrs 1.01 hrs 101.56 nm 9.37 gal 6.63 gal/hr 0.09 gal/nm 4942 msl 100 kts
Sun, Dec 25, 2011 KJYO KJYO 14:53 16:31 1.59 hrs 1.17 hrs 118.02 nm 11.97 gal 7.55 gal/hr 0.10 gal/nm 3570 msl 98 kts
Sat, Dec 24, 2011 KJYO KJYO 14:20 15:39 1.3 hrs 0.93 hrs 106.28 nm 9.04 gal 6.96 gal/hr 0.09 gal/nm 4086 msl 113 kts
Mon, Dec 19, 2011 KFDK KJYO 14:19 14:53 0.56 hrs 0.29 hrs 27.99 nm 3.22 gal 5.80 gal/hr 0.11 gal/nm 3147 msl 94 kts
Mon, Dec 19, 2011 KJYO KFDK 12:18 13:38 1.32 hrs 0.91 hrs 104.78 nm 9.13 gal 6.94 gal/hr 0.09 gal/nm 4231 msl 114 kts
Sun, Dec 18, 2011 KJYO KJYO 13:39 16:01 1.33 hrs 1.01 hrs 108.69 nm 10.17 gal 7.66 gal/hr 0.09 gal/nm 3648 msl 105 kts
Sat, Nov 26, 2011 KBLM KJYO 14:32 16:43 2.14 hrs 1.81 hrs 208.47 nm 18.73 gal 8.77 gal/hr 0.09 gal/nm 6021 msl 114 kts
Sat, Nov 26, 2011 KBLM KBLM 12:41 17:47 1.21 hrs 1.03 hrs 118.38 nm 0.03 gal 0.02 gal/hr 0.00 gal/nm 1162 msl 111 kts
Sat, Nov 26, 2011 KJYO KBLM 09:24 11:01 1.56 hrs 1.32 hrs 197.01 nm 14.43 gal 9.28 gal/hr 0.07 gal/nm 7014 msl 142 kts
Fri, Nov 25, 2011 KJYO KJYO 12:19 14:58 1.64 hrs 1.39 hrs 152.04 nm 12.76 gal 7.81 gal/hr 0.08 gal/nm 4014 msl 108 kts
Sat, Nov 19, 2011 KJGG KJYO 14:05 15:21 1.23 hrs 1.08 hrs 143.50 nm 10.89 gal 8.86 gal/hr 0.08 gal/nm 6515 msl 130 kts
Sat, Nov 19, 2011 KJYO KJGG 11:09 12:39 1.46 hrs 1.17 hrs 140.44 nm 12.48 gal 8.54 gal/hr 0.09 gal/nm 7514 msl 116 kts
Fri, Nov 18, 2011 KCJR KJYO 15:37 16:08 0.51 hrs 0.40 hrs 48.32 nm 4.20 gal 8.26 gal/hr 0.09 gal/nm 3726 msl 116 kts
Fri, Nov 18, 2011 VA42 KCJR 14:41 15:27 0.76 hrs 0.64 hrs 68.58 nm 6.38 gal 8.45 gal/hr 0.09 gal/nm 3876 msl 104 kts
Fri, Nov 18, 2011 KJYO VA42 13:14 14:20 1.09 hrs 0.85 hrs 103.34 nm 8.74 gal 7.99 gal/hr 0.08 gal/nm 3675 msl 119 kts
Sun, Nov 13, 2011 KFDK KJYO 15:08 15:42 0.57 hrs 0.31 hrs 27.31 nm 3.51 gal 6.21 gal/hr 0.13 gal/nm 2892 msl 87 kts
Sun, Nov 13, 2011 KJYO KFDK 11:22 14:14 1.84 hrs 1.49 hrs 169.12 nm 14.04 gal 7.62 gal/hr 0.08 gal/nm 3604 msl 112 kts
Sun, Nov 6, 2011 KJYO KJYO 09:48 11:36 1.77 hrs 1.45 hrs 185.95 nm 12.05 gal 6.82 gal/hr 0.06 gal/nm 6513 msl 125 kts
Sat, Nov 5, 2011 1VA9 KJYO 19:13 20:09 0.92 hrs 0.72 hrs 84.79 nm 7.39 gal 8.08 gal/hr 0.09 gal/nm 3511 msl 115 kts
Sat, Nov 5, 2011 KJYO 1VA9 18:06 19:08 1 hrs 0.74 hrs 87.68 nm 7.48 gal 7.46 gal/hr 0.09 gal/nm 3548 msl 114 kts
Mon, Oct 31, 2011 KCGE KJYO 13:35 14:39 1.05 hrs 0.86 hrs 112.67 nm 8.90 gal 8.47 gal/hr 0.08 gal/nm 6019 msl 129 kts
Mon, Oct 31, 2011 KJYO KCGE 11:18 12:29 1.16 hrs 0.84 hrs 110.88 nm 9.60 gal 8.31 gal/hr 0.09 gal/nm 7013 msl 128 kts
Sun, Oct 30, 2011 KJYO KJYO 13:54 15:31 1.55 hrs 1.24 hrs 134.10 nm 12.05 gal 7.78 gal/hr 0.09 gal/nm 3511 msl 104 kts
Tue, Oct 25, 2011 KJYO KJYO 13:33 15:29 1.89 hrs 1.70 hrs 173.01 nm 15.55 gal 8.22 gal/hr 0.09 gal/nm 3757 msl 99 kts
Sun, Oct 23, 2011 KAGC KJYO 16:47 18:05 1.28 hrs 1.04 hrs 139.98 nm 10.76 gal 8.43 gal/hr 0.08 gal/nm 7020 msl 132 kts
Sun, Oct 23, 2011 KJYO KAGC 14:45 16:11 1.42 hrs 1.10 hrs 140.80 nm 12.04 gal 8.50 gal/hr 0.09 gal/nm 6039 msl 126 kts
Mon, Oct 17, 2011 KJYO KJYO 16:31 19:03 2.5 hrs 2.21 hrs 251.91 nm 22.14 gal 8.86 gal/hr 0.09 gal/nm 3527 msl 112 kts
Sun, Oct 16, 2011 KJYO KJYO 10:34 12:07 1.51 hrs 1.18 hrs 126.15 nm 11.82 gal 7.81 gal/hr 0.09 gal/nm 4032 msl 103 kts
Fri, Oct 7, 2011 KJYO KJYO 14:46 16:12 1.35 hrs 0.89 hrs 96.89 nm 11.36 gal 8.44 gal/hr 0.12 gal/nm 4097 msl 102 kts
Fri, Oct 7, 2011 KSHD KJYO 11:22 12:21 0.96 hrs 0.72 hrs 88.07 nm 7.99 gal 8.30 gal/hr 0.09 gal/nm 5559 msl 120 kts
Fri, Oct 7, 2011 KJYO KSHD 09:30 11:01 1.5 hrs 1.23 hrs 141.53 nm 12.02 gal 8.02 gal/hr 0.08 gal/nm 6031 msl 114 kts
Wed, Oct 5, 2011 KJYO KJYO 16:38 18:23 1.72 hrs 1.43 hrs 156.65 nm 14.38 gal 8.38 gal/hr 0.09 gal/nm 3721 msl 108 kts
Wed, Sep 28, 2011 KJYO KJYO 11:35 12:59 1.4 hrs 0.98 hrs 106.34 nm 10.20 gal 7.29 gal/hr 0.10 gal/nm 3048 msl 107 kts
Tue, Sep 13, 2011 KJYO KJYO 12:11 13:30 1.28 hrs 1.02 hrs 106.50 nm 11.47 gal 9.00 gal/hr 0.11 gal/nm 4335 msl 102 kts
Wed, Aug 31, 2011 KFCI KJYO 13:52 15:02 1.1 hrs 0.90 hrs 118.97 nm 10.08 gal 9.13 gal/hr 0.08 gal/nm 6523 msl 125 kts
Wed, Aug 31, 2011 KJYO KFCI 11:49 12:59 1.12 hrs 0.88 hrs 114.06 nm 9.92 gal 8.90 gal/hr 0.09 gal/nm 6512 msl 124 kts
Sat, Aug 20, 2011 I19 KJYO 10:17 12:51 2.5 hrs 2.28 hrs 316.71 nm 22.76 gal 9.12 gal/hr 0.07 gal/nm 9032 msl 135 kts
Sat, Aug 20, 2011 1H0 I19 07:12 09:46 2.5 hrs 2.26 hrs 319.48 nm 22.58 gal 9.03 gal/hr 0.07 gal/nm 9043 msl 138 kts
Wed, Aug 17, 2011 KPWA 1H0 09:53 13:14 3.27 hrs 2.95 hrs 408.03 nm 30.03 gal 9.18 gal/hr 0.07 gal/nm 9510 msl 135 kts
Tue, Aug 16, 2011 KAEG KPWA 10:06 13:57 3.73 hrs 3.39 hrs 463.55 nm 30.37 gal 8.14 gal/hr 0.07 gal/nm 11044 msl 133 kts
Mon, Aug 15, 2011 KMYF KAEG 10:13 14:48 4.48 hrs 4.12 hrs 575.90 nm 36.60 gal 8.16 gal/hr 0.06 gal/nm 11311 msl 137 kts
Sun, Aug 14, 2011 KMYF KMYF 16:18 17:51 1.52 hrs 1.16 hrs 144.27 nm 12.70 gal 8.36 gal/hr 0.09 gal/nm 4523 msl 122 kts
Fri, Aug 5, 2011 KDVT KMYF 11:06 14:11 2.9 hrs 2.42 hrs 314.97 nm 25.75 gal 8.89 gal/hr 0.08 gal/nm 10010 msl 123 kts
Thu, Aug 4, 2011 KLVS KDVT 10:29 13:55 3.37 hrs 3.06 hrs 389.37 nm 27.53 gal 8.18 gal/hr 0.07 gal/nm 12064 msl 125 kts
Wed, Aug 3, 2011 KBGD KLVS 13:36 15:31 1.88 hrs 1.68 hrs 206.13 nm 16.12 gal 8.56 gal/hr 0.08 gal/nm 10151 msl 121 kts
Wed, Aug 3, 2011 KPNC KBGD 11:05 13:06 1.98 hrs 1.83 hrs 222.96 nm 17.31 gal 8.73 gal/hr 0.08 gal/nm 10093 msl 120 kts
Wed, Aug 3, 2011 1H0 KPNC 07:29 10:32 3.01 hrs 2.85 hrs 340.79 nm 26.52 gal 8.80 gal/hr 0.08 gal/nm 10038 msl 118 kts
Sun, Jul 31, 2011 KOSH 1H0 10:07 13:05 2.9 hrs 2.56 hrs 337.59 nm 25.22 gal 8.69 gal/hr 0.07 gal/nm 8015 msl 129 kts
Mon, Jul 25, 2011 KRCR KOSH 11:19 14:01 2.65 hrs 2.03 hrs 253.72 nm 22.49 gal 8.48 gal/hr 0.09 gal/nm 8514 msl 122 kts
Mon, Jul 25, 2011 KJYO KRCR 06:58 10:53 3.79 hrs 3.35 hrs 433.40 nm 34.18 gal 9.02 gal/hr 0.08 gal/nm 8066 msl 125 kts
Mon, Jul 18, 2011 KJYO KJYO 09:07 10:38 1.5 hrs 1.10 hrs 118.80 nm 11.06 gal 7.36 gal/hr 0.09 gal/nm 4548 msl 107 kts
Sun, Jul 17, 2011 KJYO KJYO 09:21 11:52 2.46 hrs 1.95 hrs 208.96 nm 18.84 gal 7.66 gal/hr 0.09 gal/nm 4034 msl 105 kts
Sat, Jul 16, 2011 KMRB KJYO 13:51 15:13 1.36 hrs 1.12 hrs 131.80 nm 9.88 gal 7.27 gal/hr 0.07 gal/nm 9311 msl 116 kts
Sat, Jul 16, 2011 KJYO KMRB 12:21 12:54 0.54 hrs 0.27 hrs 32.90 nm 3.53 gal 6.55 gal/hr 0.11 gal/nm 3593 msl 116 kts
Thu, Jul 14, 2011 KOKV KJYO 10:24 11:20 0.93 hrs 0.65 hrs 64.53 nm 7.21 gal 7.79 gal/hr 0.11 gal/nm 4586 msl 98 kts
Thu, Jul 14, 2011 KJYO KOKV 08:51 10:09 1.28 hrs 0.92 hrs 97.82 nm 8.86 gal 6.92 gal/hr 0.09 gal/nm 4124 msl 105 kts
Sat, Jul 2, 2011 KCGE KJYO 13:47 14:59 1.17 hrs 0.96 hrs 116.10 nm 10.13 gal 8.63 gal/hr 0.09 gal/nm 6049 msl 119 kts
Sat, Jul 2, 2011 KJYO KCGE 10:53 12:14 1.34 hrs 0.86 hrs 113.19 nm 10.02 gal 7.49 gal/hr 0.09 gal/nm 7019 msl 130 kts
Thu, Jun 30, 2011 KJYO KJYO 17:09 18:14 1.09 hrs 0.91 hrs 110.76 nm 8.38 gal 7.73 gal/hr 0.08 gal/nm 3699 msl 120 kts
Sun, Jun 26, 2011 KJYO KJYO 13:24 13:53 0.48 hrs 0.19 hrs 16.55 nm 2.58 gal 5.40 gal/hr 0.16 gal/nm 1166 msl 86 kts
Sat, Jun 18, 2011 KIAD KJYO 15:28 16:52 1.38 hrs 0.18 hrs 19.37 nm 4.78 gal 3.47 gal/hr 0.25 gal/nm 2238 msl 100 kts
Sat, Jun 18, 2011 KJYO KIAD 07:14 07:46 0.52 hrs 0.18 hrs 20.83 nm 2.93 gal 5.64 gal/hr 0.14 gal/nm 1467 msl 115 kts
Wed, Jun 15, 2011 KJYO KJYO 14:47 16:26 1.6 hrs 1.25 hrs 138.42 nm 13.12 gal 8.19 gal/hr 0.09 gal/nm 5759 msl 107 kts
Sun, Jun 12, 2011 W95 KJYO 07:56 10:31 2.5 hrs 2.32 hrs 307.52 nm 24.09 gal 9.62 gal/hr 0.08 gal/nm 6012 msl 128 kts
Fri, Jun 10, 2011 KMQI W95 11:31 12:21 0.82 hrs 0.62 hrs 74.51 nm 6.87 gal 8.38 gal/hr 0.09 gal/nm 3514 msl 118 kts
Fri, Jun 10, 2011 KJYO KMQI 08:35 10:44 2.1 hrs 1.80 hrs 240.78 nm 17.94 gal 8.55 gal/hr 0.07 gal/nm 9014 msl 130 kts
Mon, Jun 6, 2011 KOKV KJYO 18:28 19:06 0.63 hrs 0.45 hrs 46.90 nm 5.32 gal 8.40 gal/hr 0.11 gal/nm 3055 msl 103 kts
Fri, Jun 3, 2011 KRIC KJYO 14:12 15:32 1.32 hrs 1.01 hrs 111.50 nm 10.54 gal 7.97 gal/hr 0.09 gal/nm 6515 msl 109 kts
Fri, Jun 3, 2011 KJYO KRIC 10:45 11:59 1.18 hrs 0.84 hrs 122.56 nm 8.83 gal 7.47 gal/hr 0.07 gal/nm 5520 msl 140 kts
Wed, May 25, 2011 KJYO KJYO 11:22 12:57 1.56 hrs 1.31 hrs 140.21 nm 12.67 gal 8.11 gal/hr 0.09 gal/nm 7289 msl 106 kts
Sat, May 21, 2011 KFDK KJYO 15:21 15:52 0.5 hrs 0.32 hrs 33.97 nm 3.59 gal 7.26 gal/hr 0.11 gal/nm 3423 msl 106 kts
Sat, May 21, 2011 KJYO KFDK 14:13 14:46 0.54 hrs 0.28 hrs 29.86 nm 3.33 gal 6.18 gal/hr 0.11 gal/nm 2838 msl 104 kts
Sat, May 21, 2011 KJYO KJYO 10:38 12:02 1.36 hrs 1.10 hrs 137.72 nm 10.45 gal 7.68 gal/hr 0.08 gal/nm 5649 msl 122 kts
Thu, May 12, 2011 KJYO KJYO 14:37 15:19 0.71 hrs 0.33 hrs 38.72 nm 4.36 gal 6.18 gal/hr 0.11 gal/nm 3575 msl 116 kts
Tue, May 10, 2011 26N KJYO 14:24 16:02 1.58 hrs 1.24 hrs 168.23 nm 13.36 gal 8.45 gal/hr 0.08 gal/nm 8010 msl 131 kts
Tue, May 10, 2011 KJYO 26N 11:13 12:55 1.66 hrs 1.21 hrs 154.94 nm 13.02 gal 7.83 gal/hr 0.08 gal/nm 7022 msl 125 kts
Mon, May 9, 2011 KJYO KJYO 14:57 16:45 1.77 hrs 1.15 hrs 129.65 nm 12.05 gal 6.82 gal/hr 0.09 gal/nm 5703 msl 111 kts
Sun, May 8, 2011 KJGG KJYO 15:42 17:01 1.3 hrs 1.17 hrs 144.45 nm 11.62 gal 8.95 gal/hr 0.08 gal/nm 4522 msl 120 kts
Sun, May 8, 2011 KJYO KJGG 13:08 14:33 1.39 hrs 1.18 hrs 149.85 nm 11.25 gal 8.10 gal/hr 0.08 gal/nm 5832 msl 124 kts
Sat, May 7, 2011 KHEF KJYO 14:09 14:51 0.69 hrs 0.37 hrs 39.31 nm 4.29 gal 6.21 gal/hr 0.11 gal/nm 3023 msl 104 kts
Sat, May 7, 2011 KJYO KHEF 10:06 10:47 0.69 hrs 0.41 hrs 43.49 nm 4.33 gal 6.27 gal/hr 0.10 gal/nm 4036 msl 105 kts
Fri, May 6, 2011 KJYO KJYO 10:32 12:14 1.65 hrs 1.42 hrs 151.76 nm 12.73 gal 7.73 gal/hr 0.08 gal/nm 6922 msl 104 kts
Sat, Apr 30, 2011 KSFQ KJYO 14:42 16:24 1.68 hrs 1.50 hrs 176.88 nm 14.62 gal 8.70 gal/hr 0.08 gal/nm 6540 msl 117 kts
Sat, Apr 30, 2011 KJYO KSFQ 09:05 10:35 1.46 hrs 1.25 hrs 179.81 nm 12.69 gal 8.72 gal/hr 0.07 gal/nm 7517 msl 141 kts
Thu, Apr 21, 2011 KJYO KJYO 16:43 17:43 0.99 hrs 0.77 hrs 81.90 nm 7.45 gal 7.56 gal/hr 0.09 gal/nm 5531 msl 105 kts
Thu, Apr 14, 2011 KJYO KJYO 17:47 18:59 1.17 hrs 0.68 hrs 77.51 nm 7.82 gal 6.67 gal/hr 0.10 gal/nm 3060 msl 110 kts
Mon, Mar 28, 2011 KJYO KJYO 16:19 18:06 1.74 hrs 1.25 hrs 141.93 nm 14.07 gal 8.08 gal/hr 0.10 gal/nm 3050 msl 110 kts
Sun, Mar 27, 2011 KJYO KJYO 14:00 15:48 1.76 hrs 1.25 hrs 142.27 nm 12.46 gal 7.08 gal/hr 0.09 gal/nm 5514 msl 112 kts
Fri, Mar 25, 2011 KJYO KJYO 12:12 13:24 1.16 hrs 0.89 hrs 94.23 nm 8.26 gal 7.10 gal/hr 0.09 gal/nm 4129 msl 103 kts
Sun, Mar 20, 2011 KJYO KJYO 10:51 12:56 2 hrs 1.70 hrs 187.06 nm 16.33 gal 8.17 gal/hr 0.09 gal/nm 6789 msl 106 kts
Thu, Mar 17, 2011 KJYO KJYO 10:01 12:08 2.06 hrs 1.71 hrs 183.58 nm 16.66 gal 8.09 gal/hr 0.09 gal/nm 5109 msl 105 kts
Mon, Mar 14, 2011 KJYO KJYO 08:56 10:54 1.95 hrs 1.49 hrs 162.51 nm 16.81 gal 8.62 gal/hr 0.10 gal/nm 4678 msl 108 kts
Tue, Mar 8, 2011 KJYO KJYO 14:09 15:47 1.58 hrs 1.13 hrs 123.38 nm 11.91 gal 7.52 gal/hr 0.10 gal/nm 4634 msl 107 kts
Fri, Mar 4, 2011 KJYO KJYO 15:13 16:46 1.51 hrs 1.21 hrs 131.13 nm 11.58 gal 7.65 gal/hr 0.09 gal/nm 6109 msl 105 kts
Thu, Mar 3, 2011 KJYO KJYO 14:45 16:13 1.46 hrs 1.20 hrs 121.80 nm 10.59 gal 7.24 gal/hr 0.09 gal/nm 4049 msl 101 kts
Tue, Mar 1, 2011 KJYO KJYO 12:31 14:01 1.44 hrs 1.17 hrs 129.87 nm 11.71 gal 8.13 gal/hr 0.09 gal/nm 5086 msl 106 kts
Sat, Feb 26, 2011 KJYO KJYO 11:51 13:25 1.55 hrs 1.25 hrs 135.60 nm 12.10 gal 7.79 gal/hr 0.09 gal/nm 4557 msl 107 kts
Sun, Feb 20, 2011 KJYO KJYO 11:50 13:42 1.82 hrs 1.54 hrs 170.54 nm 15.34 gal 8.41 gal/hr 0.09 gal/nm 4187 msl 108 kts
Thu, Feb 17, 2011 KJYO KJYO 15:14 16:24 1.11 hrs 0.89 hrs 95.37 nm 8.79 gal 7.89 gal/hr 0.09 gal/nm 4658 msl 104 kts
Wed, Feb 16, 2011 KJYO KJYO 13:07 14:48 1.63 hrs 1.28 hrs 149.60 nm 13.82 gal 8.47 gal/hr 0.09 gal/nm 6015 msl 114 kts
Sun, Jan 16, 2011 KJYO KJYO 12:24 14:14 1.78 hrs 1.54 hrs 162.80 nm 14.84 gal 8.34 gal/hr 0.09 gal/nm 3796 msl 102 kts
Thu, Jan 6, 2011 KJYO KJYO 11:33 12:45 1.19 hrs 0.92 hrs 98.12 nm 9.29 gal 7.82 gal/hr 0.09 gal/nm 4128 msl 105 kts
Fri, Dec 31, 2010 KJYO KJYO 14:16 15:41 1.37 hrs 1.10 hrs 119.18 nm 11.96 gal 8.76 gal/hr 0.10 gal/nm 4033 msl 104 kts
Wed, Dec 29, 2010 KJYO KJYO 14:03 15:28 1.36 hrs 1.11 hrs 126.53 nm 12.13 gal 8.91 gal/hr 0.10 gal/nm 3774 msl 111 kts
Sat, Dec 4, 2010 KJYO KJYO 12:13 14:07 1.86 hrs 1.60 hrs 183.69 nm 15.58 gal 8.37 gal/hr 0.08 gal/nm 4518 msl 113 kts
Sun, Nov 28, 2010 KAGC KJYO 15:33 16:57 1.37 hrs 1.03 hrs 143.12 nm 10.94 gal 7.97 gal/hr 0.08 gal/nm 7040 msl 137 kts
Sun, Nov 28, 2010 KJYO KAGC 13:32 15:02 1.48 hrs 1.10 hrs 138.98 nm 12.11 gal 8.20 gal/hr 0.09 gal/nm 6016 msl 124 kts
Sat, Nov 20, 2010 KCGE KJYO 13:46 14:57 1.15 hrs 0.98 hrs 103.91 nm 10.60 gal 9.22 gal/hr 0.10 gal/nm 6034 msl 103 kts
Sat, Nov 20, 2010 KJYO KCGE 11:40 12:42 1.01 hrs 0.69 hrs 105.97 nm 7.94 gal 7.85 gal/hr 0.07 gal/nm 7018 msl 149 kts
Fri, Nov 19, 2010 KJYO KJYO 14:32 16:08 1.54 hrs 1.34 hrs 163.65 nm 12.90 gal 8.36 gal/hr 0.08 gal/nm 6669 msl 118 kts
Sun, Nov 14, 2010 KJYO KJYO 15:03 16:45 1.65 hrs 1.39 hrs 153.58 nm 14.21 gal 8.59 gal/hr 0.09 gal/nm 4026 msl 107 kts
Sun, Nov 14, 2010 KJYO KJYO 12:39 14:05 1.41 hrs 1.15 hrs 127.60 nm 11.55 gal 8.22 gal/hr 0.09 gal/nm 4110 msl 108 kts
Sat, Nov 13, 2010 KJYO KJYO 14:17 16:05 1.73 hrs 1.52 hrs 157.34 nm 13.85 gal 8.01 gal/hr 0.09 gal/nm 6098 msl 100 kts
Sat, Nov 13, 2010 KFRR KJYO 13:23 13:54 0.5 hrs 0.37 hrs 43.27 nm 4.06 gal 8.20 gal/hr 0.09 gal/nm 3698 msl 111 kts
Sat, Nov 13, 2010 KJYO KFRR 11:39 12:48 1.1 hrs 0.83 hrs 94.92 nm 6.50 gal 5.94 gal/hr 0.07 gal/nm 4185 msl 107 kts
Fri, Nov 12, 2010 KJYO KJYO 15:08 16:35 1.42 hrs 1.24 hrs 126.52 nm 11.82 gal 8.32 gal/hr 0.09 gal/nm 6593 msl 100 kts
Sun, Nov 7, 2010 KJYO KJYO 10:18 11:52 1.49 hrs 1.43 hrs 151.08 nm 12.92 gal 8.66 gal/hr 0.09 gal/nm 7489 msl 102 kts
Sat, Nov 6, 2010 KJYO KJYO 12:32 14:05 1.49 hrs 1.27 hrs 131.48 nm 12.81 gal 8.58 gal/hr 0.10 gal/nm 6069 msl 100 kts
Wed, Nov 3, 2010 KJYO KJYO 11:06 12:54 1.72 hrs 1.46 hrs 157.10 nm 13.35 gal 7.78 gal/hr 0.08 gal/nm 6124 msl 103 kts
Tue, Nov 2, 2010 KJYO KJYO 11:00 12:33 1.5 hrs 1.28 hrs 131.90 nm 12.88 gal 8.62 gal/hr 0.10 gal/nm 5645 msl 99 kts
Sat, Oct 30, 2010 KJYO KJYO 11:44 13:44 1.92 hrs 1.60 hrs 167.50 nm 15.10 gal 7.85 gal/hr 0.09 gal/nm 6285 msl 100 kts
Sun, Oct 24, 2010 KJYO KJYO 13:04 15:11 2.07 hrs 1.92 hrs 192.93 nm 16.68 gal 8.05 gal/hr 0.09 gal/nm 5644 msl 99 kts
Mon, Oct 18, 2010 KJYO KJYO 11:50 13:29 1.6 hrs 1.36 hrs 141.33 nm 12.77 gal 8.00 gal/hr 0.09 gal/nm 6106 msl 102 kts
Sun, Oct 17, 2010 KAGC KJYO 16:32 17:47 1.22 hrs 0.94 hrs 142.03 nm 9.22 gal 7.56 gal/hr 0.06 gal/nm 7059 msl 148 kts
Sun, Oct 17, 2010 KJYO KAGC 14:03 15:42 1.6 hrs 1.31 hrs 140.48 nm 13.51 gal 8.46 gal/hr 0.10 gal/nm 6103 msl 104 kts
Wed, Oct 13, 2010 KJYO KJYO 10:23 12:03 1.58 hrs 1.40 hrs 141.70 nm 14.96 gal 9.48 gal/hr 0.11 gal/nm 6502 msl 96 kts
Mon, Oct 11, 2010 KFIT KJYO 10:49 13:59 3.12 hrs 2.93 hrs 347.38 nm 29.97 gal 9.61 gal/hr 0.09 gal/nm 6555 msl 117 kts
Sun, Oct 10, 2010 KFIT KFIT 12:03 12:36 0.55 hrs 0.41 hrs 44.74 nm 4.06 gal 7.43 gal/hr 0.09 gal/nm 4240 msl 107 kts
Sun, Oct 10, 2010 KFIT KFIT 10:57 11:52 0.9 hrs 0.76 hrs 88.31 nm 7.68 gal 8.55 gal/hr 0.09 gal/nm 5701 msl 115 kts
Sun, Oct 10, 2010 KFIT KFIT 09:43 10:43 0.98 hrs 0.79 hrs 96.95 nm 8.29 gal 8.45 gal/hr 0.09 gal/nm 3747 msl 121 kts
Fri, Oct 8, 2010 KJYO KFIT 07:58 10:39 2.65 hrs 2.46 hrs 345.71 nm 25.88 gal 9.78 gal/hr 0.07 gal/nm 7515 msl 139 kts
Sat, Oct 2, 2010 KJYO KJYO 19:45 21:33 1.77 hrs 1.54 hrs 187.29 nm 14.74 gal 8.34 gal/hr 0.08 gal/nm 6514 msl 120 kts
Sat, Oct 2, 2010 9G7 KJYO 15:34 16:32 0.96 hrs 0.83 hrs 108.45 nm 8.42 gal 8.78 gal/hr 0.08 gal/nm 7511 msl 129 kts
Sat, Oct 2, 2010 KJYO 9G7 10:48 12:00 1.2 hrs 0.89 hrs 111.95 nm 10.05 gal 8.41 gal/hr 0.09 gal/nm 6510 msl 124 kts
Mon, Sep 20, 2010 I23 KJYO 15:15 17:36 2.3 hrs 2.12 hrs 305.03 nm 20.51 gal 8.91 gal/hr 0.07 gal/nm 9026 msl 142 kts
Mon, Sep 20, 2010 1H0 I23 11:23 14:11 2.77 hrs 2.59 hrs 363.73 nm 24.52 gal 8.87 gal/hr 0.07 gal/nm 9035 msl 138 kts
Fri, Sep 17, 2010 KCPS 1H0 14:55 15:21 0.42 hrs 0.24 hrs 29.66 nm 3.21 gal 7.70 gal/hr 0.11 gal/nm 2442 msl 117 kts
Fri, Sep 17, 2010 KALN KCPS 13:32 14:00 0.47 hrs 0.24 hrs 24.56 nm 3.37 gal 7.24 gal/hr 0.14 gal/nm 2368 msl 102 kts
Fri, Sep 17, 2010 1H0 KALN 12:20 13:11 0.84 hrs 0.60 hrs 70.36 nm 6.70 gal 7.95 gal/hr 0.10 gal/nm 5880 msl 115 kts
Wed, Sep 15, 2010 1H0 1H0 10:46 12:02 1.25 hrs 1.02 hrs 123.05 nm 11.18 gal 8.92 gal/hr 0.09 gal/nm 4571 msl 118 kts
Mon, Sep 13, 2010 I19 1H0 14:00 17:07 3.06 hrs 2.92 hrs 324.93 nm 29.80 gal 9.75 gal/hr 0.09 gal/nm 7539 msl 109 kts
Mon, Sep 13, 2010 KJYO I19 10:00 13:05 3.02 hrs 2.77 hrs 312.43 nm 28.02 gal 9.27 gal/hr 0.09 gal/nm 6030 msl 111 kts
Sat, Sep 11, 2010 KJYO KJYO 16:50 18:18 1.45 hrs 1.19 hrs 137.00 nm 12.17 gal 8.42 gal/hr 0.09 gal/nm 4524 msl 113 kts
Mon, Sep 6, 2010 KLNS KJYO 14:59 16:03 1.05 hrs 0.85 hrs 92.83 nm 8.44 gal 8.03 gal/hr 0.09 gal/nm 6081 msl 107 kts
Mon, Sep 6, 2010 KJYO KLNS 13:21 14:42 1.32 hrs 1.03 hrs 124.19 nm 10.94 gal 8.29 gal/hr 0.09 gal/nm 5213 msl 118 kts
Mon, Aug 30, 2010 KJYO KJYO 19:34 21:09 1.55 hrs 1.32 hrs 141.75 nm 14.29 gal 9.25 gal/hr 0.10 gal/nm 3522 msl 105 kts
Sun, Aug 29, 2010 KJYO KJYO 12:47 15:01 2.2 hrs 1.82 hrs 212.02 nm 18.47 gal 8.39 gal/hr 0.09 gal/nm 6517 msl 115 kts
Mon, Aug 9, 2010 KJYO KJYO 12:46 14:08 1.35 hrs 1.16 hrs 127.70 nm 10.77 gal 8.01 gal/hr 0.08 gal/nm 8946 msl 109 kts
Sat, Aug 7, 2010 KJYO KJYO 13:47 15:23 1.57 hrs 1.33 hrs 143.73 nm 14.29 gal 9.12 gal/hr 0.10 gal/nm 3760 msl 105 kts
Fri, Jul 30, 2010 KAOH KJYO 13:56 16:28 2.48 hrs 2.33 hrs 318.51 nm 22.66 gal 9.12 gal/hr 0.07 gal/nm 9998 msl 135 kts
Fri, Jul 30, 2010 KATW KAOH 09:57 12:54 2.9 hrs 2.70 hrs 361.02 nm 28.20 gal 9.72 gal/hr 0.08 gal/nm 7519 msl 131 kts
Mon, Jul 26, 2010 KRCR KATW 11:56 14:08 2.17 hrs 1.92 hrs 259.60 nm 19.34 gal 8.93 gal/hr 0.07 gal/nm 6515 msl 133 kts
Mon, Jul 26, 2010 KJYO KRCR 07:35 11:03 3.41 hrs 3.07 hrs 420.65 nm 32.21 gal 9.44 gal/hr 0.08 gal/nm 6038 msl 135 kts
Sun, Jul 18, 2010 KAGC KJYO 09:56 11:10 1.22 hrs 0.96 hrs 145.32 nm 10.53 gal 8.67 gal/hr 0.07 gal/nm 7017 msl 148 kts
Sun, Jul 18, 2010 KJYO KAGC 07:48 09:23 1.58 hrs 1.32 hrs 144.88 nm 13.78 gal 8.74 gal/hr 0.10 gal/nm 6026 msl 109 kts
Fri, Jul 16, 2010 MD31 KJYO 10:43 11:35 0.87 hrs 0.67 hrs 77.46 nm 7.73 gal 8.87 gal/hr 0.10 gal/nm 4517 msl 114 kts
Fri, Jul 16, 2010 KJYO MD31 09:13 10:00 0.77 hrs 0.57 hrs 78.66 nm 6.50 gal 8.42 gal/hr 0.08 gal/nm 5519 msl 135 kts
Thu, Jul 15, 2010 KJYO KJYO 10:42 11:55 1.19 hrs 1.02 hrs 113.82 nm 9.54 gal 8.02 gal/hr 0.08 gal/nm 5856 msl 110 kts
Mon, Jul 12, 2010 KJYO KJYO 09:37 10:52 1.18 hrs 1.02 hrs 106.19 nm 10.74 gal 9.07 gal/hr 0.10 gal/nm 5054 msl 99 kts
Sun, Jul 11, 2010 KLHV KJYO 15:26 16:35 1.13 hrs 0.99 hrs 129.34 nm 9.83 gal 8.74 gal/hr 0.08 gal/nm 6550 msl 127 kts
Sun, Jul 11, 2010 KJYO KLHV 11:35 12:55 1.31 hrs 1.11 hrs 131.81 nm 11.09 gal 8.45 gal/hr 0.08 gal/nm 5630 msl 117 kts
Sun, Jul 4, 2010 KJYO KJYO 11:51 13:15 1.37 hrs 1.15 hrs 122.97 nm 10.28 gal 7.50 gal/hr 0.08 gal/nm 5415 msl 106 kts
Fri, Jul 2, 2010 KAGC KJYO 16:24 17:42 1.28 hrs 1.09 hrs 138.96 nm 11.17 gal 8.72 gal/hr 0.08 gal/nm 7531 msl 127 kts
Fri, Jul 2, 2010 9G7 KAGC 13:49 14:20 0.51 hrs 0.37 hrs 41.87 nm 4.14 gal 8.10 gal/hr 0.10 gal/nm 5539 msl 111 kts
Fri, Jul 2, 2010 KJYO 9G7 11:01 12:07 1.1 hrs 0.90 hrs 111.62 nm 9.56 gal 8.66 gal/hr 0.09 gal/nm 8539 msl 123 kts
Thu, Jul 1, 2010 KJYO KJYO 09:25 10:50 1.39 hrs 1.17 hrs 117.36 nm 12.08 gal 8.72 gal/hr 0.10 gal/nm 5382 msl 97 kts
Wed, Jun 30, 2010 KJYO KJYO 10:26 11:51 1.38 hrs 1.19 hrs 122.54 nm 12.54 gal 9.06 gal/hr 0.10 gal/nm 5475 msl 100 kts
Sat, Jun 26, 2010 KJYO KJYO 22:07 22:36 0.49 hrs 0.19 hrs 16.98 nm 2.94 gal 6.04 gal/hr 0.17 gal/nm 1316 msl 89 kts
Sat, Jun 26, 2010 KJYO KJYO 21:30 22:00 0.51 hrs 0.18 hrs 15.63 nm 2.87 gal 5.69 gal/hr 0.18 gal/nm 1250 msl 87 kts
Fri, Jun 25, 2010 KJYO KJYO 12:36 14:00 1.37 hrs 1.12 hrs 120.17 nm 9.99 gal 7.28 gal/hr 0.08 gal/nm 5509 msl 106 kts
Thu, Jun 24, 2010 KJYO KJYO 10:01 11:25 1.36 hrs 1.14 hrs 115.58 nm 13.27 gal 9.78 gal/hr 0.11 gal/nm 5431 msl 98 kts
Sat, Jun 19, 2010 W41 KJYO 13:55 15:18 1.35 hrs 1.19 hrs 147.70 nm 12.72 gal 9.41 gal/hr 0.09 gal/nm 6058 msl 121 kts
Sat, Jun 19, 2010 KJYO W41 10:07 11:28 1.32 hrs 1.07 hrs 148.02 nm 11.80 gal 8.94 gal/hr 0.08 gal/nm 7028 msl 135 kts
Fri, Jun 18, 2010 KJYO KJYO 10:59 12:29 1.47 hrs 1.23 hrs 131.07 nm 12.29 gal 8.39 gal/hr 0.09 gal/nm 7186 msl 105 kts
Sun, Jun 13, 2010 W95 KJYO 09:12 11:56 2.64 hrs 2.43 hrs 298.43 nm 24.96 gal 9.45 gal/hr 0.08 gal/nm 8011 msl 119 kts
Fri, Jun 11, 2010 KMQI W95 12:46 13:28 0.69 hrs 0.56 hrs 72.09 nm 6.33 gal 9.18 gal/hr 0.09 gal/nm 3018 msl 127 kts
Fri, Jun 11, 2010 KJYO KMQI 09:51 11:45 1.87 hrs 1.58 hrs 234.71 nm 16.33 gal 8.74 gal/hr 0.07 gal/nm 7552 msl 146 kts
Thu, Jun 10, 2010 KJYO KJYO 12:12 13:20 1.13 hrs 0.92 hrs 106.05 nm 8.88 gal 7.86 gal/hr 0.08 gal/nm 6138 msl 115 kts
Wed, Jun 2, 2010 KJYO KJYO 11:54 13:18 1.35 hrs 1.02 hrs 110.52 nm 11.80 gal 8.72 gal/hr 0.11 gal/nm 3528 msl 105 kts
Mon, May 31, 2010 KJYO KJYO 10:59 12:38 1.6 hrs 1.04 hrs 111.51 nm 12.33 gal 7.72 gal/hr 0.11 gal/nm 3363 msl 104 kts
Sun, May 30, 2010 KAGC KJYO 13:20 14:45 1.38 hrs 1.11 hrs 150.81 nm 11.71 gal 8.47 gal/hr 0.08 gal/nm 7034 msl 133 kts
Sun, May 30, 2010 KJYO KAGC 09:54 11:30 1.59 hrs 1.20 hrs 144.66 nm 13.55 gal 8.52 gal/hr 0.09 gal/nm 6029 msl 120 kts
Wed, May 26, 2010 KOXB KJYO 14:06 15:38 1.52 hrs 1.19 hrs 157.38 nm 12.70 gal 8.38 gal/hr 0.08 gal/nm 6025 msl 130 kts
Wed, May 26, 2010 KJYO KOXB 10:34 12:05 1.5 hrs 1.23 hrs 157.10 nm 13.27 gal 8.86 gal/hr 0.08 gal/nm 7023 msl 127 kts
Thu, May 20, 2010 KJYO KJYO 15:03 16:21 1.27 hrs 1.06 hrs 114.61 nm 9.38 gal 7.40 gal/hr 0.08 gal/nm 6129 msl 106 kts
Sun, May 16, 2010 KOXB KJYO 15:01 16:30 1.47 hrs 1.27 hrs 149.28 nm 13.30 gal 9.06 gal/hr 0.09 gal/nm 6031 msl 116 kts
Sun, May 16, 2010 KJYO KOXB 11:39 13:07 1.44 hrs 0.98 hrs 145.40 nm 10.78 gal 7.47 gal/hr 0.07 gal/nm 7011 msl 145 kts
Mon, May 10, 2010 KJYO KJYO 15:30 16:33 1.02 hrs 0.81 hrs 81.31 nm 7.63 gal 7.45 gal/hr 0.09 gal/nm 5917 msl 99 kts
Fri, May 7, 2010 KJYO KJYO 12:40 14:15 1.56 hrs 1.37 hrs 152.02 nm 12.21 gal 7.83 gal/hr 0.08 gal/nm 6203 msl 110 kts
Thu, May 6, 2010 KJYO KJYO 14:20 15:33 1.2 hrs 0.92 hrs 102.30 nm 9.75 gal 8.11 gal/hr 0.10 gal/nm 5239 msl 111 kts
Wed, May 5, 2010 KJYO KJYO 15:25 16:50 1.36 hrs 1.20 hrs 126.39 nm 13.21 gal 9.72 gal/hr 0.10 gal/nm 6083 msl 102 kts
Wed, May 5, 2010 KHGR KJYO 12:41 13:18 0.63 hrs 0.40 hrs 39.87 nm 4.18 gal 6.63 gal/hr 0.10 gal/nm 3538 msl 99 kts
Sat, May 1, 2010 KJYO KJYO 15:17 16:27 1.14 hrs 0.97 hrs 103.77 nm 8.60 gal 7.55 gal/hr 0.08 gal/nm 5044 msl 105 kts
Sat, May 1, 2010 KLNS KJYO 13:57 14:59 0.99 hrs 0.80 hrs 92.74 nm 8.31 gal 8.40 gal/hr 0.09 gal/nm 4535 msl 111 kts
Sat, May 1, 2010 KJYO KLNS 11:19 12:16 0.93 hrs 0.69 hrs 95.67 nm 7.54 gal 8.08 gal/hr 0.08 gal/nm 5536 msl 138 kts
Thu, Apr 29, 2010 KJYO KJYO 10:24 11:40 1.24 hrs 0.97 hrs 100.49 nm 10.08 gal 8.12 gal/hr 0.10 gal/nm 5365 msl 100 kts
Fri, Apr 23, 2010 KJYO KJYO 12:44 13:34 0.83 hrs 0.57 hrs 48.33 nm 6.25 gal 7.53 gal/hr 0.13 gal/nm 1341 msl 85 kts
Sun, Apr 18, 2010 KJZP KJYO 10:28 14:10 3.64 hrs 3.50 hrs 456.24 nm 32.15 gal 8.82 gal/hr 0.07 gal/nm 9044 msl 129 kts
Sat, Apr 17, 2010 KJZP KJZP 11:11 12:04 0.87 hrs 0.75 hrs 87.58 nm 7.06 gal 8.10 gal/hr 0.08 gal/nm 3483 msl 115 kts
Sat, Apr 17, 2010 KJZP KJZP 10:23 10:55 0.54 hrs 0.38 hrs 41.68 nm 3.89 gal 7.17 gal/hr 0.09 gal/nm 3077 msl 110 kts
Fri, Apr 16, 2010 KLAL KJZP 10:11 13:38 3.36 hrs 3.06 hrs 431.49 nm 31.61 gal 9.40 gal/hr 0.07 gal/nm 6127 msl 137 kts
Mon, Apr 12, 2010 KSSI KLAL 11:03 12:57 1.89 hrs 1.58 hrs 213.96 nm 15.97 gal 8.47 gal/hr 0.07 gal/nm 6051 msl 134 kts
Mon, Apr 12, 2010 09J KSSI 10:26 10:45 0.31 hrs 0.12 hrs 10.92 nm 1.96 gal 6.37 gal/hr 0.18 gal/nm 964 msl 90 kts
Sat, Apr 10, 2010 KSUT 09J 15:47 18:03 2.24 hrs 2.00 hrs 261.37 nm 19.67 gal 8.78 gal/hr 0.08 gal/nm 1472 msl 129 kts
Sat, Apr 10, 2010 KFFA KSUT 13:18 15:09 1.8 hrs 1.64 hrs 214.76 nm 16.42 gal 9.13 gal/hr 0.08 gal/nm 1553 msl 128 kts
Sat, Apr 10, 2010 KJYO KFFA 09:23 11:09 1.75 hrs 1.54 hrs 228.84 nm 15.08 gal 8.62 gal/hr 0.07 gal/nm 5366 msl 146 kts
Sun, Apr 4, 2010 2G4 KJYO 13:33 14:42 1.13 hrs 0.95 hrs 115.10 nm 8.15 gal 7.24 gal/hr 0.07 gal/nm 5566 msl 120 kts
Sun, Apr 4, 2010 KJYO 2G4 11:43 12:49 1.11 hrs 0.81 hrs 94.43 nm 8.86 gal 8.00 gal/hr 0.09 gal/nm 6032 msl 116 kts
Sat, Apr 3, 2010 KJYO KJYO 14:46 15:27 0.67 hrs 0.46 hrs 39.93 nm 5.08 gal 7.54 gal/hr 0.13 gal/nm 1354 msl 84 kts
Sat, Apr 3, 2010 KMRB KJYO 13:54 14:31 0.6 hrs 0.32 hrs 30.31 nm 3.61 gal 6.03 gal/hr 0.12 gal/nm 2822 msl 94 kts
Sat, Apr 3, 2010 KJYO KMRB 11:48 12:51 1.02 hrs 0.77 hrs 79.13 nm 8.85 gal 8.67 gal/hr 0.11 gal/nm 3426 msl 99 kts
Fri, Apr 2, 2010 KLNS KJYO 12:29 13:29 0.99 hrs 0.78 hrs 94.38 nm 8.64 gal 8.74 gal/hr 0.09 gal/nm 4553 msl 119 kts
Fri, Apr 2, 2010 KJYO KLNS 10:21 11:19 0.95 hrs 0.71 hrs 94.32 nm 7.90 gal 8.30 gal/hr 0.08 gal/nm 3530 msl 130 kts
Thu, Apr 1, 2010 KTHV KJYO 12:28 13:30 1 hrs 0.85 hrs 103.12 nm 8.87 gal 8.86 gal/hr 0.09 gal/nm 4545 msl 119 kts
Thu, Apr 1, 2010 KJYO KTHV 10:13 11:13 0.87 hrs 0.56 hrs 72.14 nm 6.88 gal 7.95 gal/hr 0.10 gal/nm 3757 msl 125 kts
Sat, Mar 27, 2010 KJGG KJYO 15:15 16:38 1.36 hrs 1.20 hrs 158.43 nm 11.77 gal 8.65 gal/hr 0.07 gal/nm 6265 msl 129 kts
Sat, Mar 27, 2010 KJYO KJGG 11:50 13:14 1.37 hrs 1.13 hrs 144.58 nm 11.87 gal 8.68 gal/hr 0.08 gal/nm 5270 msl 125 kts
Sat, Mar 27, 2010 KHGR KJYO 10:27 11:16 0.81 hrs 0.49 hrs 56.69 nm 5.65 gal 6.99 gal/hr 0.10 gal/nm 4531 msl 113 kts
Sun, Mar 7, 2010 KJYO KHGR 10:11 10:53 0.69 hrs 0.41 hrs 42.97 nm 5.12 gal 7.46 gal/hr 0.12 gal/nm 3336 msl 103 kts
Sun, Feb 21, 2010 KJYO KJYO 13:36 14:48 1.18 hrs 0.88 hrs 91.69 nm 9.34 gal 7.90 gal/hr 0.10 gal/nm 3573 msl 103 kts
Thu, Feb 4, 2010 KTHV KJYO 14:41 15:26 0.75 hrs 0.56 hrs 68.53 nm 5.99 gal 7.97 gal/hr 0.09 gal/nm 4277 msl 123 kts
Thu, Feb 4, 2010 KJYO KTHV 12:43 13:37 0.88 hrs 0.57 hrs 71.49 nm 6.89 gal 7.82 gal/hr 0.10 gal/nm 3246 msl 123 kts
Mon, Feb 1, 2010 KJYO KJYO 14:14 15:35 1.33 hrs 0.88 hrs 95.85 nm 10.11 gal 7.61 gal/hr 0.11 gal/nm 4247 msl 106 kts
Wed, Jan 27, 2010 KHGR KJYO 10:27 11:15 0.79 hrs 0.41 hrs 44.72 nm 4.99 gal 6.32 gal/hr 0.11 gal/nm 3128 msl 106 kts
Thu, Jan 7, 2010 KJYO KHGR 09:15 09:55 0.67 hrs 0.42 hrs 41.72 nm 4.60 gal 6.91 gal/hr 0.11 gal/nm 2356 msl 99 kts
Wed, Dec 30, 2009 KTHV KJYO 13:01 13:47 0.76 hrs 0.60 hrs 65.87 nm 6.41 gal 8.39 gal/hr 0.10 gal/nm 4250 msl 108 kts
Wed, Dec 30, 2009 KJYO KTHV 11:07 11:57 0.83 hrs 0.51 hrs 69.57 nm 6.43 gal 7.79 gal/hr 0.09 gal/nm 3612 msl 134 kts
Sun, Dec 27, 2009 KGED KJYO 14:04 15:43 1.62 hrs 1.27 hrs 141.79 nm 13.47 gal 8.33 gal/hr 0.09 gal/nm 5869 msl 109 kts
Sun, Dec 27, 2009 KJYO KGED 11:32 12:56 1.39 hrs 1.06 hrs 145.63 nm 11.26 gal 8.08 gal/hr 0.08 gal/nm 4825 msl 136 kts
Thu, Dec 24, 2009 KTHV KJYO 12:57 13:42 0.73 hrs 0.56 hrs 68.26 nm 5.78 gal 7.88 gal/hr 0.08 gal/nm 4261 msl 121 kts
Thu, Dec 24, 2009 KJYO KTHV 10:56 11:56 0.99 hrs 0.59 hrs 76.81 nm 7.19 gal 7.26 gal/hr 0.09 gal/nm 3575 msl 128 kts
Wed, Dec 23, 2009 KJYO KJYO 13:32 15:16 1.7 hrs 1.35 hrs 157.09 nm 13.90 gal 8.16 gal/hr 0.09 gal/nm 4256 msl 114 kts
Sat, Dec 12, 2009 KLNS KJYO 14:00 15:17 1.26 hrs 0.88 hrs 97.54 nm 9.86 gal 7.84 gal/hr 0.10 gal/nm 5706 msl 109 kts
Sat, Dec 12, 2009 KJYO KLNS 11:19 12:21 1.02 hrs 0.72 hrs 95.80 nm 8.27 gal 8.13 gal/hr 0.09 gal/nm 4729 msl 132 kts
Tue, Dec 1, 2009 KHGR KJYO 15:21 15:59 0.62 hrs 0.38 hrs 42.52 nm 4.35 gal 7.02 gal/hr 0.10 gal/nm 3132 msl 110 kts
Tue, Dec 1, 2009 KJYO KHGR 08:37 09:13 0.6 hrs 0.38 hrs 43.99 nm 4.26 gal 7.10 gal/hr 0.10 gal/nm 2875 msl 116 kts
Sun, Nov 29, 2009 KAGC KJYO 14:27 16:05 1.63 hrs 1.26 hrs 177.03 nm 13.35 gal 8.20 gal/hr 0.08 gal/nm 7065 msl 140 kts
Sun, Nov 29, 2009 KJYO KAGC 11:51 13:38 1.78 hrs 1.50 hrs 154.27 nm 15.48 gal 8.72 gal/hr 0.10 gal/nm 6012 msl 102 kts
Sun, Nov 22, 2009 KRDG KJYO 13:56 15:07 1.16 hrs 0.93 hrs 126.41 nm 9.69 gal 8.35 gal/hr 0.08 gal/nm 5911 msl 134 kts
Sun, Nov 22, 2009 KJYO KRDG 11:34 12:59 1.39 hrs 1.03 hrs 126.93 nm 11.35 gal 8.20 gal/hr 0.09 gal/nm 4905 msl 121 kts
Sun, Nov 15, 2009 KCGE KJYO 14:35 15:44 1.14 hrs 0.90 hrs 107.79 nm 9.67 gal 8.49 gal/hr 0.09 gal/nm 6119 msl 119 kts
Sun, Nov 15, 2009 KJYO KCGE 12:14 13:27 1.2 hrs 0.82 hrs 109.92 nm 9.37 gal 7.81 gal/hr 0.09 gal/nm 7105 msl 133 kts
Sun, Nov 8, 2009 KFIT KJYO 10:57 14:29 3.48 hrs 3.00 hrs 388.23 nm 31.12 gal 8.94 gal/hr 0.08 gal/nm 8078 msl 128 kts
Sat, Nov 7, 2009 KJYO KFIT 09:13 12:10 2.44 hrs 2.40 hrs 368.54 nm 28.27 gal 11.57 gal/hr 0.08 gal/nm 6863 msl 143 kts
Sun, Oct 25, 2009 KJYO KJYO 14:35 15:37 1.03 hrs 0.82 hrs 95.94 nm 8.79 gal 8.57 gal/hr 0.09 gal/nm 6236 msl 117 kts
Sun, Oct 25, 2009 KESN KJYO 11:54 13:01 1.07 hrs 0.73 hrs 91.76 nm 8.17 gal 7.63 gal/hr 0.09 gal/nm 6015 msl 120 kts
Sun, Oct 25, 2009 KJYO KESN 10:21 11:33 1.17 hrs 0.77 hrs 102.15 nm 8.69 gal 7.42 gal/hr 0.09 gal/nm 7024 msl 127 kts
          568.63 hrs 451.44 hrs 53963.17 nm 4570.82 gal